sensor_id;sensor_type;location;lat;lon;timestamp;pressure;altitude;pressure_sealevel;temperature;humidity
18533;BME280;9396;51.510;11.934;2023-06-10T00:02:11;100448.31;;;18.54;83.88
18533;BME280;9396;51.510;11.934;2023-06-10T00:04:38;100449.38;;;18.60;83.85
18533;BME280;9396;51.510;11.934;2023-06-10T00:07:06;100456.63;;;18.66;84.14
18533;BME280;9396;51.510;11.934;2023-06-10T00:09:34;100463.88;;;18.52;84.06
18533;BME280;9396;51.510;11.934;2023-06-10T00:12:02;100461.81;;;18.54;83.74
18533;BME280;9396;51.510;11.934;2023-06-10T00:14:30;100465.75;;;18.58;84.17
18533;BME280;9396;51.510;11.934;2023-06-10T00:16:57;100457.25;;;18.55;84.87
18533;BME280;9396;51.510;11.934;2023-06-10T00:19:24;100456.41;;;18.54;84.63
18533;BME280;9396;51.510;11.934;2023-06-10T00:21:55;100460.75;;;18.55;84.67
18533;BME280;9396;51.510;11.934;2023-06-10T00:24:22;100446.78;;;18.32;85.14
18533;BME280;9396;51.510;11.934;2023-06-10T00:26:49;100457.38;;;18.40;85.13
18533;BME280;9396;51.510;11.934;2023-06-10T00:29:16;100459.44;;;18.32;85.62
18533;BME280;9396;51.510;11.934;2023-06-10T00:31:44;100467.69;;;18.30;85.41
18533;BME280;9396;51.510;11.934;2023-06-10T00:34:11;100469.31;;;18.18;85.29
18533;BME280;9396;51.510;11.934;2023-06-10T00:36:38;100469.31;;;18.18;86.16
18533;BME280;9396;51.510;11.934;2023-06-10T00:39:05;100456.84;;;18.10;85.87
18533;BME280;9396;51.510;11.934;2023-06-10T00:41:32;100454.81;;;18.19;85.83
18533;BME280;9396;51.510;11.934;2023-06-10T00:43:59;100460.81;;;18.21;86.21
18533;BME280;9396;51.510;11.934;2023-06-10T00:46:26;100428.75;;;17.79;86.00
18533;BME280;9396;51.510;11.934;2023-06-10T00:48:54;100468.81;;;18.01;86.18
18533;BME280;9396;51.510;11.934;2023-06-10T00:51:21;100471.75;;;18.06;86.82
18533;BME280;9396;51.510;11.934;2023-06-10T00:53:49;100471.06;;;17.91;86.87
18533;BME280;9396;51.510;11.934;2023-06-10T00:56:16;100463.81;;;17.92;86.93
18533;BME280;9396;51.510;11.934;2023-06-10T00:58:42;100464.44;;;17.94;86.63
18533;BME280;9396;51.510;11.934;2023-06-10T01:01:09;100471.72;;;18.00;86.57
18533;BME280;9396;51.510;11.934;2023-06-10T01:03:36;100474.63;;;18.05;86.32
18533;BME280;9396;51.510;11.934;2023-06-10T01:06:08;100476.31;;;18.12;85.81
18533;BME280;9396;51.510;11.934;2023-06-10T01:08:41;100468.00;;;18.01;86.25
18533;BME280;9396;51.510;11.934;2023-06-10T01:11:18;100430.03;;;17.49;86.65
18533;BME280;9396;51.510;11.934;2023-06-10T01:13:49;100462.09;;;17.78;87.02
18533;BME280;9396;51.510;11.934;2023-06-10T01:16:17;100466.78;;;17.69;87.49
18533;BME280;9396;51.510;11.934;2023-06-10T01:18:45;100463.22;;;17.62;88.07
18533;BME280;9396;51.510;11.934;2023-06-10T01:21:19;100467.56;;;17.57;87.94
18533;BME280;9396;51.510;11.934;2023-06-10T01:23:46;100468.16;;;17.59;88.52
18533;BME280;9396;51.510;11.934;2023-06-10T01:26:13;100474.59;;;17.37;88.40
18533;BME280;9396;51.510;11.934;2023-06-10T01:28:45;100474.75;;;17.50;88.77
18533;BME280;9396;51.510;11.934;2023-06-10T01:31:17;100469.81;;;17.53;89.01
18533;BME280;9396;51.510;11.934;2023-06-10T01:33:51;100473.50;;;17.52;89.32
18533;BME280;9396;51.510;11.934;2023-06-10T01:36:22;100462.88;;;17.44;89.58
18533;BME280;9396;51.510;11.934;2023-06-10T01:38:50;100471.28;;;17.35;89.56
18533;BME280;9396;51.510;11.934;2023-06-10T01:41:19;100476.94;;;17.46;89.54
18533;BME280;9396;51.510;11.934;2023-06-10T01:43:48;100481.28;;;17.41;89.86
18533;BME280;9396;51.510;11.934;2023-06-10T01:46:15;100477.81;;;17.26;90.70
18533;BME280;9396;51.510;11.934;2023-06-10T01:48:45;100479.63;;;17.19;90.94
18533;BME280;9396;51.510;11.934;2023-06-10T01:51:11;100479.66;;;16.97;92.24
18533;BME280;9396;51.510;11.934;2023-06-10T01:53:39;100475.94;;;16.98;92.49
18533;BME280;9396;51.510;11.934;2023-06-10T01:56:06;100482.75;;;16.94;92.35
18533;BME280;9396;51.510;11.934;2023-06-10T01:58:32;100483.25;;;17.04;91.92
18533;BME280;9396;51.510;11.934;2023-06-10T02:00:59;100483.94;;;17.13;91.90
18533;BME280;9396;51.510;11.934;2023-06-10T02:03:26;100486.31;;;17.01;92.56
18533;BME280;9396;51.510;11.934;2023-06-10T02:05:52;100485.47;;;17.01;92.26
18533;BME280;9396;51.510;11.934;2023-06-10T02:08:19;100486.25;;;16.95;92.62
18533;BME280;9396;51.510;11.934;2023-06-10T02:10:47;100496.53;;;16.91;92.56
18533;BME280;9396;51.510;11.934;2023-06-10T02:13:14;100495.59;;;16.78;93.61
18533;BME280;9396;51.510;11.934;2023-06-10T02:15:40;100491.38;;;16.69;93.95
18533;BME280;9396;51.510;11.934;2023-06-10T02:18:07;100495.63;;;16.63;94.11
18533;BME280;9396;51.510;11.934;2023-06-10T02:20:34;100498.19;;;16.36;95.37
18533;BME280;9396;51.510;11.934;2023-06-10T02:23:01;100502.28;;;16.32;95.76
18533;BME280;9396;51.510;11.934;2023-06-10T02:25:28;100499.88;;;16.22;96.30
18533;BME280;9396;51.510;11.934;2023-06-10T02:27:56;100495.28;;;16.16;97.10
18533;BME280;9396;51.510;11.934;2023-06-10T02:30:23;100504.03;;;16.25;97.22
18533;BME280;9396;51.510;11.934;2023-06-10T02:32:49;100509.50;;;16.17;96.88
18533;BME280;9396;51.510;11.934;2023-06-10T02:35:17;100504.41;;;16.22;97.37
18533;BME280;9396;51.510;11.934;2023-06-10T02:37:44;100505.91;;;16.09;97.32
18533;BME280;9396;51.510;11.934;2023-06-10T02:40:11;100508.03;;;16.14;97.75
18533;BME280;9396;51.510;11.934;2023-06-10T02:42:38;100507.28;;;16.20;97.65
18533;BME280;9396;51.510;11.934;2023-06-10T02:45:07;100507.84;;;16.30;97.52
18533;BME280;9396;51.510;11.934;2023-06-10T02:47:34;100509.88;;;16.28;97.07
18533;BME280;9396;51.510;11.934;2023-06-10T02:50:01;100503.94;;;16.18;97.16
18533;BME280;9396;51.510;11.934;2023-06-10T02:52:29;100516.19;;;16.06;97.85
18533;BME280;9396;51.510;11.934;2023-06-10T02:54:56;100505.47;;;15.77;99.17
18533;BME280;9396;51.510;11.934;2023-06-10T02:57:23;100513.41;;;15.85;99.50
18533;BME280;9396;51.510;11.934;2023-06-10T02:59:50;100511.31;;;15.80;99.86
18533;BME280;9396;51.510;11.934;2023-06-10T03:02:20;100508.78;;;15.79;100.00
18533;BME280;9396;51.510;11.934;2023-06-10T03:04:47;100508.78;;;15.79;100.00
18533;BME280;9396;51.510;11.934;2023-06-10T03:07:15;100509.72;;;15.86;99.63
18533;BME280;9396;51.510;11.934;2023-06-10T03:09:43;100511.66;;;15.92;99.57
18533;BME280;9396;51.510;11.934;2023-06-10T03:12:10;100517.78;;;15.86;99.70
18533;BME280;9396;51.510;11.934;2023-06-10T03:14:37;100513.13;;;15.65;100.00
18533;BME280;9396;51.510;11.934;2023-06-10T03:17:04;100516.94;;;15.71;100.00
18533;BME280;9396;51.510;11.934;2023-06-10T03:19:32;100515.91;;;15.72;100.00
18533;BME280;9396;51.510;11.934;2023-06-10T03:22:08;100515.09;;;15.71;100.00
18533;BME280;9396;51.510;11.934;2023-06-10T03:24:35;100519.97;;;15.82;100.00
18533;BME280;9396;51.510;11.934;2023-06-10T03:27:06;100520.81;;;15.54;100.00
18533;BME280;9396;51.510;11.934;2023-06-10T03:29:32;100517.47;;;15.52;100.00
18533;BME280;9396;51.510;11.934;2023-06-10T03:31:59;100511.63;;;15.63;100.00
18533;BME280;9396;51.510;11.934;2023-06-10T03:34:26;100522.56;;;15.39;100.00
18533;BME280;9396;51.510;11.934;2023-06-10T03:36:54;100520.16;;;15.52;100.00
18533;BME280;9396;51.510;11.934;2023-06-10T03:39:20;100522.09;;;15.58;100.00
18533;BME280;9396;51.510;11.934;2023-06-10T03:41:48;100522.66;;;15.68;100.00
18533;BME280;9396;51.510;11.934;2023-06-10T03:44:15;100529.41;;;15.64;100.00
18533;BME280;9396;51.510;11.934;2023-06-10T03:46:41;100521.63;;;15.54;100.00
18533;BME280;9396;51.510;11.934;2023-06-10T03:49:08;100529.47;;;15.56;100.00
18533;BME280;9396;51.510;11.934;2023-06-10T03:51:36;100525.84;;;15.49;100.00
18533;BME280;9396;51.510;11.934;2023-06-10T03:54:04;100522.47;;;15.55;100.00
18533;BME280;9396;51.510;11.934;2023-06-10T03:56:31;100534.13;;;15.62;100.00
18533;BME280;9396;51.510;11.934;2023-06-10T03:58:58;100524.31;;;15.69;100.00
18533;BME280;9396;51.510;11.934;2023-06-10T04:01:25;100538.16;;;15.58;100.00
18533;BME280;9396;51.510;11.934;2023-06-10T04:03:52;100527.09;;;15.61;100.00
18533;BME280;9396;51.510;11.934;2023-06-10T04:06:19;100547.94;;;15.73;100.00
18533;BME280;9396;51.510;11.934;2023-06-10T04:08:47;100550.03;;;15.78;100.00
18533;BME280;9396;51.510;11.934;2023-06-10T04:11:16;100547.34;;;15.63;100.00
18533;BME280;9396;51.510;11.934;2023-06-10T04:13:42;100552.22;;;15.60;100.00
18533;BME280;9396;51.510;11.934;2023-06-10T04:16:11;100556.31;;;15.70;100.00
18533;BME280;9396;51.510;11.934;2023-06-10T04:18:38;100551.25;;;15.61;100.00
18533;BME280;9396;51.510;11.934;2023-06-10T04:21:04;100558.47;;;15.38;100.00
18533;BME280;9396;51.510;11.934;2023-06-10T04:23:31;100558.22;;;15.47;100.00
18533;BME280;9396;51.510;11.934;2023-06-10T04:25:58;100556.50;;;15.69;100.00
18533;BME280;9396;51.510;11.934;2023-06-10T04:28:26;100565.84;;;15.73;100.00
18533;BME280;9396;51.510;11.934;2023-06-10T04:30:53;100560.19;;;15.53;100.00
18533;BME280;9396;51.510;11.934;2023-06-10T04:33:20;100572.31;;;15.64;100.00
18533;BME280;9396;51.510;11.934;2023-06-10T04:35:46;100573.91;;;15.73;100.00
18533;BME280;9396;51.510;11.934;2023-06-10T04:38:13;100580.72;;;15.61;100.00
18533;BME280;9396;51.510;11.934;2023-06-10T04:40:40;100586.81;;;15.55;100.00
18533;BME280;9396;51.510;11.934;2023-06-10T04:43:07;100582.22;;;15.78;100.00
18533;BME280;9396;51.510;11.934;2023-06-10T04:45:35;100584.72;;;15.79;100.00
18533;BME280;9396;51.510;11.934;2023-06-10T04:48:02;100576.69;;;15.79;100.00
18533;BME280;9396;51.510;11.934;2023-06-10T04:50:28;100583.53;;;15.82;100.00
18533;BME280;9396;51.510;11.934;2023-06-10T04:52:55;100580.25;;;16.09;100.00
18533;BME280;9396;51.510;11.934;2023-06-10T04:55:23;100579.28;;;16.17;100.00
18533;BME280;9396;51.510;11.934;2023-06-10T04:57:49;100589.09;;;16.09;100.00
18533;BME280;9396;51.510;11.934;2023-06-10T05:00:17;100588.09;;;15.96;100.00
18533;BME280;9396;51.510;11.934;2023-06-10T05:02:45;100589.94;;;15.95;100.00
18533;BME280;9396;51.510;11.934;2023-06-10T05:05:14;100589.66;;;16.05;100.00
18533;BME280;9396;51.510;11.934;2023-06-10T05:07:41;100592.25;;;16.13;100.00
18533;BME280;9396;51.510;11.934;2023-06-10T05:10:09;100586.34;;;16.18;100.00
18533;BME280;9396;51.510;11.934;2023-06-10T05:12:38;100585.69;;;16.16;100.00
18533;BME280;9396;51.510;11.934;2023-06-10T05:15:06;100590.59;;;16.12;100.00
18533;BME280;9396;51.510;11.934;2023-06-10T05:17:33;100579.03;;;16.26;100.00
18533;BME280;9396;51.510;11.934;2023-06-10T05:20:01;100586.03;;;16.42;100.00
18533;BME280;9396;51.510;11.934;2023-06-10T05:22:28;100584.13;;;16.36;100.00
18533;BME280;9396;51.510;11.934;2023-06-10T05:24:54;100589.94;;;16.25;100.00
18533;BME280;9396;51.510;11.934;2023-06-10T05:27:22;100586.97;;;16.34;100.00
18533;BME280;9396;51.510;11.934;2023-06-10T05:29:49;100591.88;;;16.31;99.81
18533;BME280;9396;51.510;11.934;2023-06-10T05:32:17;100594.28;;;16.26;100.00
18533;BME280;9396;51.510;11.934;2023-06-10T05:34:43;100584.66;;;16.31;100.00
18533;BME280;9396;51.510;11.934;2023-06-10T05:37:12;100553.47;;;16.30;100.00
18533;BME280;9396;51.510;11.934;2023-06-10T05:39:39;100595.59;;;16.59;99.49
18533;BME280;9396;51.510;11.934;2023-06-10T05:42:07;100593.38;;;16.62;99.28
18533;BME280;9396;51.510;11.934;2023-06-10T05:44:34;100600.19;;;16.79;98.56
18533;BME280;9396;51.510;11.934;2023-06-10T05:47:01;100592.47;;;16.91;98.55
18533;BME280;9396;51.510;11.934;2023-06-10T05:49:28;100596.59;;;17.08;98.29
18533;BME280;9396;51.510;11.934;2023-06-10T05:51:54;100593.84;;;17.23;97.70
18533;BME280;9396;51.510;11.934;2023-06-10T05:54:25;100590.59;;;17.48;95.94
18533;BME280;9396;51.510;11.934;2023-06-10T05:56:51;100585.59;;;17.94;94.44
18533;BME280;9396;51.510;11.934;2023-06-10T05:59:18;100591.53;;;18.17;93.93
18533;BME280;9396;51.510;11.934;2023-06-10T06:01:45;100592.06;;;18.40;92.14
18533;BME280;9396;51.510;11.934;2023-06-10T06:04:11;100584.94;;;18.60;91.80
18533;BME280;9396;51.510;11.934;2023-06-10T06:06:39;100587.34;;;18.42;91.33
18533;BME280;9396;51.510;11.934;2023-06-10T06:09:06;100591.34;;;18.53;91.36
18533;BME280;9396;51.510;11.934;2023-06-10T06:11:34;100594.34;;;18.84;92.24
18533;BME280;9396;51.510;11.934;2023-06-10T06:14:01;100583.19;;;18.93;89.65
18533;BME280;9396;51.510;11.934;2023-06-10T06:16:28;100582.88;;;19.36;90.44
18533;BME280;9396;51.510;11.934;2023-06-10T06:18:54;100586.41;;;19.95;88.68
18533;BME280;9396;51.510;11.934;2023-06-10T06:21:21;100585.78;;;20.06;85.99
18533;BME280;9396;51.510;11.934;2023-06-10T06:23:47;100586.16;;;20.22;85.38
18533;BME280;9396;51.510;11.934;2023-06-10T06:26:14;100563.78;;;19.70;85.75
18533;BME280;9396;51.510;11.934;2023-06-10T06:28:42;100587.19;;;20.15;85.23
18533;BME280;9396;51.510;11.934;2023-06-10T06:31:09;100593.78;;;20.96;83.22
18533;BME280;9396;51.510;11.934;2023-06-10T06:33:36;100583.59;;;21.36;82.07
18533;BME280;9396;51.510;11.934;2023-06-10T06:36:03;100586.66;;;21.14;81.37
18533;BME280;9396;51.510;11.934;2023-06-10T06:38:29;100581.28;;;21.64;81.12
18533;BME280;9396;51.510;11.934;2023-06-10T06:40:56;100592.97;;;21.58;80.65
18533;BME280;9396;51.510;11.934;2023-06-10T06:43:28;100590.72;;;21.86;81.72
18533;BME280;9396;51.510;11.934;2023-06-10T06:45:56;100595.44;;;21.90;80.38
18533;BME280;9396;51.510;11.934;2023-06-10T06:48:23;100590.56;;;21.99;79.55
18533;BME280;9396;51.510;11.934;2023-06-10T06:50:49;100588.09;;;22.58;78.52
18533;BME280;9396;51.510;11.934;2023-06-10T06:53:16;100600.09;;;22.80;78.01
18533;BME280;9396;51.510;11.934;2023-06-10T06:55:43;100596.03;;;23.49;76.04
18533;BME280;9396;51.510;11.934;2023-06-10T06:58:09;100591.97;;;24.38;74.34
18533;BME280;9396;51.510;11.934;2023-06-10T07:00:36;100595.81;;;23.62;75.15
18533;BME280;9396;51.510;11.934;2023-06-10T07:03:04;100593.06;;;24.03;71.94
18533;BME280;9396;51.510;11.934;2023-06-10T07:05:30;100594.97;;;24.65;71.81
18533;BME280;9396;51.510;11.934;2023-06-10T07:07:57;100593.41;;;24.69;72.21
18533;BME280;9396;51.510;11.934;2023-06-10T07:10:24;100600.81;;;24.97;72.02
18533;BME280;9396;51.510;11.934;2023-06-10T07:12:51;100602.94;;;24.95;70.90
18533;BME280;9396;51.510;11.934;2023-06-10T07:15:18;100588.09;;;25.75;68.61
18533;BME280;9396;51.510;11.934;2023-06-10T07:17:44;100601.63;;;24.58;69.91
18533;BME280;9396;51.510;11.934;2023-06-10T07:20:13;100577.59;;;25.67;68.96
18533;BME280;9396;51.510;11.934;2023-06-10T07:22:41;100599.06;;;25.64;68.57
18533;BME280;9396;51.510;11.934;2023-06-10T07:25:08;100601.53;;;25.49;70.85
18533;BME280;9396;51.510;11.934;2023-06-10T07:27:34;100604.50;;;25.64;70.07
18533;BME280;9396;51.510;11.934;2023-06-10T07:30:03;100598.41;;;25.90;68.73
18533;BME280;9396;51.510;11.934;2023-06-10T07:32:30;100607.56;;;26.55;69.04
18533;BME280;9396;51.510;11.934;2023-06-10T07:34:56;100602.41;;;26.75;66.28
18533;BME280;9396;51.510;11.934;2023-06-10T07:37:25;100597.28;;;26.62;66.33
18533;BME280;9396;51.510;11.934;2023-06-10T07:39:51;100607.72;;;25.94;68.98
18533;BME280;9396;51.510;11.934;2023-06-10T07:42:18;100607.00;;;25.82;70.41
18533;BME280;9396;51.510;11.934;2023-06-10T07:44:45;100600.28;;;26.22;68.84
18533;BME280;9396;51.510;11.934;2023-06-10T07:47:11;100607.50;;;26.50;68.16
18533;BME280;9396;51.510;11.934;2023-06-10T07:49:38;100607.13;;;26.41;68.22
18533;BME280;9396;51.510;11.934;2023-06-10T07:52:05;100607.50;;;26.50;68.51
18533;BME280;9396;51.510;11.934;2023-06-10T07:54:34;100606.91;;;25.44;68.87
18533;BME280;9396;51.510;11.934;2023-06-10T07:57:00;100613.44;;;25.59;70.18
18533;BME280;9396;51.510;11.934;2023-06-10T07:59:27;100605.53;;;26.07;69.12
18533;BME280;9396;51.510;11.934;2023-06-10T08:01:54;100603.69;;;26.51;68.28
18533;BME280;9396;51.510;11.934;2023-06-10T08:04:20;100606.94;;;26.48;67.69
18533;BME280;9396;51.510;11.934;2023-06-10T08:06:47;100612.69;;;25.80;70.20
18533;BME280;9396;51.510;11.934;2023-06-10T08:09:13;100609.06;;;25.91;70.73
18533;BME280;9396;51.510;11.934;2023-06-10T08:11:41;100612.03;;;25.28;70.09
18533;BME280;9396;51.510;11.934;2023-06-10T08:14:08;100598.97;;;25.59;71.82
18533;BME280;9396;51.510;11.934;2023-06-10T08:16:35;100598.41;;;25.73;72.57
18533;BME280;9396;51.510;11.934;2023-06-10T08:19:01;100609.81;;;25.70;71.49
18533;BME280;9396;51.510;11.934;2023-06-10T08:21:28;100612.28;;;25.88;71.33
18533;BME280;9396;51.510;11.934;2023-06-10T08:23:55;100608.34;;;25.79;69.75
18533;BME280;9396;51.510;11.934;2023-06-10T08:26:21;100616.16;;;25.03;71.65
18533;BME280;9396;51.510;11.934;2023-06-10T08:28:49;100613.69;;;25.01;71.73
18533;BME280;9396;51.510;11.934;2023-06-10T08:31:16;100603.03;;;25.56;72.86
18533;BME280;9396;51.510;11.934;2023-06-10T08:33:43;100607.28;;;25.07;73.07
18533;BME280;9396;51.510;11.934;2023-06-10T08:36:09;100606.66;;;25.78;73.58
18533;BME280;9396;51.510;11.934;2023-06-10T08:38:36;100605.34;;;25.81;71.65
18533;BME280;9396;51.510;11.934;2023-06-10T08:41:05;100545.34;;;24.86;71.96
18533;BME280;9396;51.510;11.934;2023-06-10T08:43:33;100601.03;;;25.85;73.54
18533;BME280;9396;51.510;11.934;2023-06-10T08:46:04;100609.97;;;25.35;71.64
18533;BME280;9396;51.510;11.934;2023-06-10T08:48:35;100605.00;;;25.61;71.10
18533;BME280;9396;51.510;11.934;2023-06-10T08:51:04;100599.09;;;25.35;70.99
18533;BME280;9396;51.510;11.934;2023-06-10T08:53:33;100601.03;;;25.85;72.76
18533;BME280;9396;51.510;11.934;2023-06-10T08:56:04;100597.94;;;26.09;73.11
18533;BME280;9396;51.510;11.934;2023-06-10T08:58:32;100594.44;;;25.64;70.61
18533;BME280;9396;51.510;11.934;2023-06-10T09:01:07;100594.41;;;25.48;71.22
18533;BME280;9396;51.510;11.934;2023-06-10T09:03:34;100588.75;;;25.99;73.11
18533;BME280;9396;51.510;11.934;2023-06-10T09:06:04;100589.06;;;25.86;70.62
18533;BME280;9396;51.510;11.934;2023-06-10T09:08:33;100582.47;;;25.49;71.63
18533;BME280;9396;51.510;11.934;2023-06-10T09:11:00;100583.22;;;26.10;70.22
18533;BME280;9396;51.510;11.934;2023-06-10T09:13:26;100585.94;;;26.10;71.07
18533;BME280;9396;51.510;11.934;2023-06-10T09:15:53;100579.59;;;26.43;69.39
18533;BME280;9396;51.510;11.934;2023-06-10T09:18:23;100576.44;;;26.73;69.77
18533;BME280;9396;51.510;11.934;2023-06-10T09:20:49;100584.81;;;26.88;69.54
18533;BME280;9396;51.510;11.934;2023-06-10T09:23:17;100577.75;;;26.70;69.00
18533;BME280;9396;51.510;11.934;2023-06-10T09:25:43;100572.13;;;26.77;69.25
18533;BME280;9396;51.510;11.934;2023-06-10T09:28:13;100574.22;;;26.31;68.56
18533;BME280;9396;51.510;11.934;2023-06-10T09:30:41;100568.06;;;26.19;70.58
18533;BME280;9396;51.510;11.934;2023-06-10T09:33:10;100570.59;;;26.26;69.89
18533;BME280;9396;51.510;11.934;2023-06-10T09:35:45;100568.84;;;26.15;69.19
18533;BME280;9396;51.510;11.934;2023-06-10T09:38:13;100573.19;;;25.99;69.62
18533;BME280;9396;51.510;11.934;2023-06-10T09:40:48;100573.94;;;25.62;69.35
18533;BME280;9396;51.510;11.934;2023-06-10T09:43:15;100575.25;;;25.92;69.42
18533;BME280;9396;51.510;11.934;2023-06-10T09:45:42;100579.16;;;25.96;69.99
18533;BME280;9396;51.510;11.934;2023-06-10T09:48:09;100586.44;;;26.07;69.05
18533;BME280;9396;51.510;11.934;2023-06-10T09:50:41;100593.03;;;26.11;70.00
18533;BME280;9396;51.510;11.934;2023-06-10T09:53:08;100583.84;;;26.01;69.77
18533;BME280;9396;51.510;11.934;2023-06-10T09:55:37;100552.13;;;26.11;69.13
18533;BME280;9396;51.510;11.934;2023-06-10T09:58:04;100573.13;;;26.11;69.60
18533;BME280;9396;51.510;11.934;2023-06-10T10:00:32;100577.16;;;26.08;69.41
18533;BME280;9396;51.510;11.934;2023-06-10T10:02:59;100579.41;;;25.95;70.22
18533;BME280;9396;51.510;11.934;2023-06-10T10:05:27;100584.13;;;25.83;70.54
18533;BME280;9396;51.510;11.934;2023-06-10T10:07:56;100591.31;;;25.72;70.09
18533;BME280;9396;51.510;11.934;2023-06-10T10:10:23;100584.84;;;25.62;70.76
18533;BME280;9396;51.510;11.934;2023-06-10T10:12:54;100583.28;;;25.82;70.04
18533;BME280;9396;51.510;11.934;2023-06-10T10:15:23;100589.72;;;25.76;69.20
18533;BME280;9396;51.510;11.934;2023-06-10T10:17:53;100578.81;;;25.76;70.51
18533;BME280;9396;51.510;11.934;2023-06-10T10:20:26;100571.47;;;25.77;71.04
18533;BME280;9396;51.510;11.934;2023-06-10T10:22:57;100569.09;;;25.80;70.17
18533;BME280;9396;51.510;11.934;2023-06-10T10:25:27;100570.56;;;25.88;69.44
18533;BME280;9396;51.510;11.934;2023-06-10T10:27:57;100565.50;;;25.96;69.08
18533;BME280;9396;51.510;11.934;2023-06-10T10:30:25;100556.00;;;26.15;70.14
18533;BME280;9396;51.510;11.934;2023-06-10T10:32:57;100558.47;;;26.17;68.28
18533;BME280;9396;51.510;11.934;2023-06-10T10:35:26;100556.22;;;26.30;70.13
18533;BME280;9396;51.510;11.934;2023-06-10T10:37:54;100551.19;;;26.22;68.59
18533;BME280;9396;51.510;11.934;2023-06-10T10:40:23;100557.56;;;26.11;68.31
18533;BME280;9396;51.510;11.934;2023-06-10T10:42:51;100557.25;;;26.08;69.52
18533;BME280;9396;51.510;11.934;2023-06-10T10:45:18;100558.97;;;25.97;68.18
18533;BME280;9396;51.510;11.934;2023-06-10T10:47:52;100553.53;;;26.14;68.50
18533;BME280;9396;51.510;11.934;2023-06-10T10:50:21;100533.75;;;25.52;69.43
18533;BME280;9396;51.510;11.934;2023-06-10T10:52:55;100551.75;;;25.86;69.93
18533;BME280;9396;51.510;11.934;2023-06-10T10:55:23;100495.16;;;25.60;69.49
18533;BME280;9396;51.510;11.934;2023-06-10T10:57:55;100492.19;;;25.62;68.83
18533;BME280;9396;51.510;11.934;2023-06-10T11:00:27;100543.50;;;26.03;69.34
18533;BME280;9396;51.510;11.934;2023-06-10T11:02:58;100548.66;;;26.16;69.53
18533;BME280;9396;51.510;11.934;2023-06-10T11:05:31;100546.69;;;25.95;69.66
18533;BME280;9396;51.510;11.934;2023-06-10T11:08:01;100540.72;;;25.98;69.21
18533;BME280;9396;51.510;11.934;2023-06-10T11:10:30;100526.13;;;26.04;69.31
18533;BME280;9396;51.510;11.934;2023-06-10T11:12:58;100476.53;;;25.90;69.83
18533;BME280;9396;51.510;11.934;2023-06-10T11:15:26;100533.56;;;26.30;69.12
18533;BME280;9396;51.510;11.934;2023-06-10T11:18:20;100527.84;;;26.31;69.60
18533;BME280;9396;51.510;11.934;2023-06-10T11:20:55;100529.81;;;25.98;68.53
18533;BME280;9396;51.510;11.934;2023-06-10T11:23:30;100528.16;;;25.97;69.23
18533;BME280;9396;51.510;11.934;2023-06-10T11:26:29;100528.47;;;26.17;67.24
18533;BME280;9396;51.510;11.934;2023-06-10T11:29:03;100526.47;;;26.29;67.48
18533;BME280;9396;51.510;11.934;2023-06-10T11:31:31;100516.75;;;26.38;67.92
18533;BME280;9396;51.510;11.934;2023-06-10T11:34:00;100514.56;;;26.40;67.29
18533;BME280;9396;51.510;11.934;2023-06-10T11:36:28;100518.44;;;26.44;67.54
18533;BME280;9396;51.510;11.934;2023-06-10T11:38:57;100512.88;;;26.34;67.34
18533;BME280;9396;51.510;11.934;2023-06-10T11:41:26;100491.44;;;26.21;66.26
18533;BME280;9396;51.510;11.934;2023-06-10T11:43:54;100506.69;;;26.43;67.23
18533;BME280;9396;51.510;11.934;2023-06-10T11:46:22;100503.84;;;26.55;67.94
18533;BME280;9396;51.510;11.934;2023-06-10T11:48:49;100500.75;;;26.68;66.53
18533;BME280;9396;51.510;11.934;2023-06-10T11:51:16;100497.91;;;26.63;65.61
18533;BME280;9396;51.510;11.934;2023-06-10T11:53:44;100482.03;;;26.55;66.20
18533;BME280;9396;51.510;11.934;2023-06-10T11:56:10;100490.78;;;26.57;65.66
18533;BME280;9396;51.510;11.934;2023-06-10T11:58:41;100492.09;;;26.76;67.01
18533;BME280;9396;51.510;11.934;2023-06-10T12:01:10;100475.47;;;26.78;66.38
18533;BME280;9396;51.510;11.934;2023-06-10T12:03:37;100476.06;;;26.85;66.85
18533;BME280;9396;51.510;11.934;2023-06-10T12:06:05;100483.19;;;26.86;66.35
18533;BME280;9396;51.510;11.934;2023-06-10T12:08:32;100477.53;;;26.92;67.09
18533;BME280;9396;51.510;11.934;2023-06-10T12:10:59;100473.31;;;26.80;66.39
18533;BME280;9396;51.510;11.934;2023-06-10T12:13:26;100479.06;;;26.62;64.73
18533;BME280;9396;51.510;11.934;2023-06-10T12:15:55;100473.31;;;26.58;66.49
18533;BME280;9396;51.510;11.934;2023-06-10T12:18:32;100464.94;;;26.65;67.07
18533;BME280;9396;51.510;11.934;2023-06-10T12:20:59;100468.00;;;26.68;64.22
18533;BME280;9396;51.510;11.934;2023-06-10T12:23:26;100459.72;;;26.63;64.29
18533;BME280;9396;51.510;11.934;2023-06-10T12:25:53;100456.97;;;26.63;63.74
18533;BME280;9396;51.510;11.934;2023-06-10T12:28:21;100455.53;;;26.77;63.56
18533;BME280;9396;51.510;11.934;2023-06-10T12:30:48;100457.84;;;26.90;65.39
18533;BME280;9396;51.510;11.934;2023-06-10T12:33:20;100455.75;;;27.02;63.79
18533;BME280;9396;51.510;11.934;2023-06-10T12:35:48;100451.16;;;27.08;63.33
18533;BME280;9396;51.510;11.934;2023-06-10T12:38:20;100450.09;;;27.09;63.25
18533;BME280;9396;51.510;11.934;2023-06-10T12:40:48;100430.22;;;27.18;62.48
18533;BME280;9396;51.510;11.934;2023-06-10T12:43:19;100433.31;;;27.27;63.51
18533;BME280;9396;51.510;11.934;2023-06-10T12:45:46;100437.25;;;27.41;63.39
18533;BME280;9396;51.510;11.934;2023-06-10T12:48:19;100428.50;;;27.39;62.82
18533;BME280;9396;51.510;11.934;2023-06-10T12:50:51;100424.66;;;27.40;62.94
18533;BME280;9396;51.510;11.934;2023-06-10T12:53:18;100420.59;;;27.42;63.46